Pinto, Utah
Current Conditions -  °F | °C
As of 1:53 AM on Thursday 23 Oct 2014 (Local Time) from KCDC Reporting Station
Clear Clear  
Wind Chill: 38°   Ceiling: Unl
Heat Index: 38°   Visibility: 10mi
Dew Point: 28°   Wind: 3mph
Humidity: 68%   Direction: 50°NE
Pressure: 30.21"   Gusts: NA
Location:  37.8476°N, 113.744°W
Report Text: KCDC 230753Z AUTO 05003KT 10SM CLR 03/M02 A3021 RMK AO2 SLP196 T00331022 TSNO
Loading
Personal Weather Stations






























Interactive Weather Map
Tropical Storm Tracking
New forecast layout! Learn more

10-Day Weather Forecast

Advertisements
Track Severe Weather on mobile